Terminal Aerodrome Forecast
Issued by NWS

Home | Current Version | Previous Version | Text Only | Print | Product List | Glossary Off
Versions: 1 2 3 4 5 6 7 8 9 10 11 12 13 14 15 16 17

000
FTUS43 KABR 230711 AAA
TAFPIR
TAF AMD
KPIR 230711Z 2307/2406 30011KT P6SM SCT110 WS020/31035KT
     FM231300 30020G29KT P6SM FEW200
     FM231600 31027G38KT P6SM FEW200
     FM240000 32020G29KT P6SM SCT140=

USA.gov is the U.S. government's official web portal to all federal, state and local government web resources and services.